createdAt,value
2023-05-24T00:01:51.544Z,38.63
2023-05-24T00:04:20.095Z,24.25
2023-05-24T00:06:48.546Z,30.13
2023-05-24T00:09:18.217Z,28.23
2023-05-24T00:11:46.452Z,38.15
2023-05-24T00:14:14.721Z,29.35
2023-05-24T00:16:43.157Z,31.27
2023-05-24T00:19:12.160Z,43.25
2023-05-24T00:21:40.405Z,29.40
2023-05-24T00:24:08.774Z,37.45
2023-05-24T00:26:38.817Z,39.15
2023-05-24T00:29:07.199Z,31.85
2023-05-24T00:31:35.561Z,24.60
2023-05-24T00:34:03.882Z,35.45
2023-05-24T00:36:33.186Z,24.05
2023-05-24T00:39:01.622Z,30.30
2023-05-24T00:41:29.832Z,27.52
2023-05-24T00:43:59.461Z,24.13
2023-05-24T00:46:30.682Z,27.75
2023-05-24T00:48:59.544Z,29.17
2023-05-24T00:51:28.421Z,33.05
2023-05-24T00:53:57.612Z,25.45
2023-05-24T00:56:26.325Z,33.22
2023-05-24T00:58:56.241Z,31.95
2023-05-24T01:01:26.792Z,27.77
2023-05-24T01:03:55.432Z,17.20
2023-05-24T01:06:24.939Z,32.83
2023-05-24T01:09:10.158Z,28.83
2023-05-24T01:11:51.480Z,34.78
2023-05-24T01:14:27.626Z,27.13
2023-05-24T01:17:03.324Z,24.00
2023-05-24T01:19:45.198Z,23.08
2023-05-24T01:22:26.788Z,23.20
2023-05-24T01:25:04.775Z,27.85
2023-05-24T01:27:37.330Z,24.17
2023-05-24T01:30:06.526Z,28.55
2023-05-24T01:32:34.974Z,33.45
2023-05-24T01:35:03.412Z,24.52
2023-05-24T01:37:31.658Z,17.60
2023-05-24T01:40:00.357Z,25.60
2023-05-24T01:42:35.469Z,23.13
2023-05-24T01:45:10.296Z,36.05
2023-05-24T01:47:50.912Z,22.77
2023-05-24T01:50:26.124Z,28.77
2023-05-24T01:52:56.344Z,26.33
2023-05-24T01:55:25.905Z,36.05
2023-05-24T01:58:00.064Z,19.75
2023-05-24T02:00:31.193Z,36.20
2023-05-24T02:03:00.025Z,21.88
2023-05-24T02:05:28.640Z,32.88
2023-05-24T02:07:56.844Z,21.92
2023-05-24T02:10:25.223Z,22.60
2023-05-24T02:12:53.471Z,28.27
2023-05-24T02:15:21.811Z,26.63
2023-05-24T02:17:54.638Z,27.77
2023-05-24T02:20:24.228Z,32.13
2023-05-24T02:22:52.522Z,33.58
2023-05-24T02:25:20.916Z,36.05
2023-05-24T02:27:49.353Z,16.48
2023-05-24T02:30:17.618Z,19.55
2023-05-24T02:32:46.550Z,27.42
2023-05-24T02:35:16.352Z,22.38
2023-05-24T02:37:44.708Z,26.52
2023-05-24T02:40:13.853Z,35.50
2023-05-24T02:42:42.231Z,20.55
2023-05-24T02:45:11.161Z,14.82
2023-05-24T02:47:39.441Z,32.15
2023-05-24T02:50:08.656Z,19.52
2023-05-24T02:52:38.250Z,13.55
2023-05-24T02:55:08.513Z,24.42
2023-05-24T02:57:38.386Z,23.73
2023-05-24T03:00:09.490Z,16.25
2023-05-24T03:02:38.840Z,35.75
2023-05-24T03:05:08.188Z,23.35
2023-05-24T03:07:37.842Z,19.25
2023-05-24T03:10:07.122Z,20.52
2023-05-24T03:12:35.470Z,22.88
2023-05-24T03:15:03.837Z,17.83
2023-05-24T03:17:32.217Z,17.35
2023-05-24T03:20:02.369Z,16.83
2023-05-24T03:22:31.151Z,17.65
2023-05-24T03:25:02.186Z,28.27
2023-05-24T03:27:30.446Z,25.02
2023-05-24T03:29:58.756Z,18.02
2023-05-24T03:32:29.135Z,19.50
2023-05-24T03:34:59.484Z,23.98
2023-05-24T03:37:27.983Z,24.15
2023-05-24T03:39:56.290Z,26.08
2023-05-24T03:42:25.912Z,25.92
2023-05-24T03:44:54.146Z,25.73
2023-05-24T03:47:22.568Z,19.98
2023-05-24T03:49:51.293Z,27.30
2023-05-24T03:52:19.593Z,26.17
2023-05-24T03:54:47.988Z,22.05
2023-05-24T03:57:16.403Z,26.60
2023-05-24T03:59:46.278Z,22.30
2023-05-24T04:02:14.753Z,26.38
2023-05-24T04:04:43.229Z,23.65
2023-05-24T04:07:12.146Z,22.73
2023-05-24T04:09:40.418Z,23.98
2023-05-24T04:12:08.823Z,11.80
2023-05-24T04:14:37.103Z,32.75
2023-05-24T04:17:07.971Z,20.02
2023-05-24T04:19:36.296Z,15.02
2023-05-24T04:22:04.549Z,16.95
2023-05-24T04:24:32.789Z,14.85
2023-05-24T04:27:01.097Z,20.02
2023-05-24T04:29:29.312Z,26.58
2023-05-24T04:31:57.756Z,25.05
2023-05-24T04:34:29.700Z,21.60
2023-05-24T04:36:58.090Z,20.63
2023-05-24T04:39:26.390Z,25.30
2023-05-24T04:41:55.257Z,15.70
2023-05-24T04:44:24.296Z,25.27
2023-05-24T04:46:52.700Z,16.05
2023-05-24T04:49:23.797Z,26.38
2023-05-24T04:51:55.112Z,23.25
2023-05-24T04:54:23.549Z,29.23
2023-05-24T04:56:52.123Z,24.25
2023-05-24T04:59:20.399Z,25.45
2023-05-24T05:01:48.940Z,20.48
2023-05-24T05:04:17.312Z,19.27
2023-05-24T05:06:45.591Z,26.25
2023-05-24T05:09:15.837Z,14.90
2023-05-24T05:11:44.394Z,13.82
2023-05-24T05:14:12.717Z,14.68
2023-05-24T05:16:41.297Z,21.55
2023-05-24T05:19:09.732Z,18.80
2023-05-24T05:21:40.019Z,19.27
2023-05-24T05:24:08.344Z,22.23
2023-05-24T05:26:38.105Z,26.58
2023-05-24T05:29:06.403Z,17.50
2023-05-24T05:31:34.707Z,18.40
2023-05-24T05:34:02.987Z,12.98
2023-05-24T05:36:31.280Z,32.60
2023-05-24T05:38:59.587Z,18.55
2023-05-24T05:41:27.818Z,16.67
2023-05-24T05:43:57.440Z,18.80
2023-05-24T05:46:25.715Z,18.92
2023-05-24T05:48:53.947Z,16.60
2023-05-24T05:51:22.156Z,14.90
2023-05-24T05:53:50.684Z,19.30
2023-05-24T05:56:19.008Z,20.25
2023-05-24T05:58:47.251Z,17.35
2023-05-24T06:01:17.270Z,22.48
2023-05-24T06:03:45.961Z,13.32
2023-05-24T06:06:14.382Z,13.93
2023-05-24T06:08:42.585Z,14.98
2023-05-24T06:11:10.850Z,20.58
2023-05-24T06:13:39.084Z,21.70
2023-05-24T06:16:08.578Z,15.27
2023-05-24T06:18:38.617Z,24.67
2023-05-24T06:21:10.496Z,15.15
2023-05-24T06:23:38.965Z,15.75
2023-05-24T06:26:09.619Z,17.27
2023-05-24T06:28:38.191Z,12.20
2023-05-24T06:31:06.798Z,13.13
2023-05-24T06:33:37.106Z,12.18
2023-05-24T06:36:07.948Z,18.07
2023-05-24T06:38:39.029Z,18.73
2023-05-24T06:41:08.858Z,13.23
2023-05-24T06:43:37.105Z,13.67
2023-05-24T06:46:05.328Z,15.17
2023-05-24T06:48:33.602Z,8.90
2023-05-24T06:51:02.087Z,8.07
2023-05-24T06:53:31.753Z,9.60
2023-05-24T06:56:00.024Z,7.73
2023-05-24T06:58:28.317Z,15.23
2023-05-24T07:00:56.741Z,16.15
2023-05-24T07:03:25.195Z,19.48
2023-05-24T07:05:53.447Z,24.35
2023-05-24T07:08:21.824Z,17.17
2023-05-24T07:10:52.020Z,17.15
2023-05-24T07:13:20.378Z,19.20
2023-05-24T07:15:48.790Z,17.88
2023-05-24T07:18:17.292Z,20.20
2023-05-24T07:20:45.798Z,17.30
2023-05-24T07:23:14.356Z,10.83
2023-05-24T07:25:42.612Z,19.80
2023-05-24T07:28:14.246Z,12.88
2023-05-24T07:30:42.566Z,14.70
2023-05-24T07:33:11.398Z,34.25
2023-05-24T07:35:40.224Z,26.02
2023-05-24T07:38:08.430Z,14.30
2023-05-24T07:40:36.694Z,10.27
2023-05-24T07:43:04.982Z,18.95
2023-05-24T07:45:34.649Z,16.50
2023-05-24T07:48:02.970Z,14.60
2023-05-24T07:50:31.248Z,24.00
2023-05-24T07:52:59.513Z,16.98
2023-05-24T07:55:28.448Z,13.40
2023-05-24T07:57:56.751Z,7.72
2023-05-24T08:00:25.410Z,10.23
2023-05-24T08:02:55.158Z,17.08
2023-05-24T08:05:24.006Z,11.30
2023-05-24T08:07:52.653Z,12.33
2023-05-24T08:10:21.950Z,11.70
2023-05-24T08:12:51.557Z,14.63
2023-05-24T08:15:19.808Z,18.87
2023-05-24T08:17:48.073Z,13.63
2023-05-24T08:20:17.991Z,15.63
2023-05-24T08:22:48.345Z,9.88
2023-05-24T08:25:16.781Z,10.13
2023-05-24T08:27:45.024Z,9.32
2023-05-24T08:30:15.304Z,9.60
2023-05-24T08:32:43.620Z,17.88
2023-05-24T08:35:21.132Z,24.52
2023-05-24T08:37:51.745Z,17.55
2023-05-24T08:40:20.200Z,16.92
2023-05-24T08:42:51.088Z,20.02
2023-05-24T08:45:22.498Z,17.05
2023-05-24T08:47:52.738Z,20.05
2023-05-24T08:50:21.510Z,8.98
2023-05-24T08:52:52.512Z,16.77
2023-05-24T08:55:21.421Z,19.38
2023-05-24T08:57:51.427Z,13.90
2023-05-24T09:00:20.644Z,13.13
2023-05-24T09:02:49.119Z,18.55
2023-05-24T09:05:17.968Z,10.52
2023-05-24T09:07:47.346Z,21.63
2023-05-24T09:10:20.657Z,12.38
2023-05-24T09:12:53.289Z,19.88
2023-05-24T09:15:21.613Z,13.25
2023-05-24T09:17:49.952Z,14.85
2023-05-24T09:20:19.187Z,13.50
2023-05-24T09:22:51.907Z,15.15
2023-05-24T09:25:25.731Z,11.50
2023-05-24T09:27:54.674Z,11.73
2023-05-24T09:30:23.373Z,16.83
2023-05-24T09:32:59.699Z,8.53
2023-05-24T09:35:28.429Z,8.20
2023-05-24T09:37:59.927Z,14.80
2023-05-24T09:40:30.840Z,13.07
2023-05-24T09:43:07.330Z,9.77
2023-05-24T09:45:44.437Z,12.50
2023-05-24T09:48:13.623Z,12.63
2023-05-24T09:50:42.193Z,9.07
2023-05-24T09:53:10.817Z,9.67
2023-05-24T09:55:40.788Z,18.83
2023-05-24T09:58:11.621Z,11.30
2023-05-24T10:00:42.508Z,18.53
2023-05-24T10:03:13.555Z,13.10
2023-05-24T10:05:44.594Z,74.63
2023-05-24T10:08:14.560Z,22.90
2023-05-24T10:10:45.123Z,37.97
2023-05-24T10:13:15.867Z,44.42
2023-05-24T10:15:45.396Z,29.92
2023-05-24T10:18:14.325Z,22.67
2023-05-24T10:20:43.212Z,18.95
2023-05-24T10:23:12.210Z,11.25
2023-05-24T10:25:48.394Z,20.42
2023-05-24T10:28:18.315Z,11.15
2023-05-24T10:31:02.912Z,17.33
2023-05-24T10:33:33.572Z,22.65
2023-05-24T10:36:02.192Z,8.60
2023-05-24T10:38:31.532Z,23.20
2023-05-24T10:41:01.204Z,18.37
2023-05-24T10:43:29.664Z,13.95
2023-05-24T10:45:59.008Z,19.35
2023-05-24T10:48:36.225Z,16.75
2023-05-24T10:51:34.784Z,22.70
2023-05-24T10:54:16.916Z,20.48
2023-05-24T10:56:52.261Z,17.65
2023-05-24T10:59:34.943Z,22.02
2023-05-24T11:02:04.114Z,17.52
2023-05-24T11:04:34.166Z,15.15
2023-05-24T11:07:04.694Z,19.83
2023-05-24T11:09:33.654Z,13.30
2023-05-24T11:12:07.421Z,15.00
2023-05-24T11:14:42.311Z,15.40
2023-05-24T11:17:10.833Z,12.73
2023-05-24T11:19:40.273Z,13.70
2023-05-24T11:22:12.368Z,24.42
2023-05-24T11:24:42.879Z,11.63
2023-05-24T11:27:15.188Z,19.42
2023-05-24T11:29:44.595Z,19.98
2023-05-24T11:32:16.892Z,17.33
2023-05-24T11:34:46.305Z,14.07
2023-05-24T11:37:17.721Z,15.07
2023-05-24T11:39:52.263Z,10.05
2023-05-24T11:42:23.943Z,14.45
2023-05-24T11:44:53.073Z,19.92
2023-05-24T11:47:23.338Z,15.93
2023-05-24T11:49:52.654Z,17.27
2023-05-24T11:52:21.327Z,18.88
2023-05-24T11:54:50.934Z,14.98
2023-05-24T11:57:28.277Z,17.83
2023-05-24T11:59:58.124Z,16.20
2023-05-24T12:02:26.527Z,11.97
2023-05-24T12:04:55.293Z,18.60
2023-05-24T12:07:25.188Z,17.67
2023-05-24T12:09:53.509Z,15.60
2023-05-24T12:12:30.435Z,20.90
2023-05-24T12:15:02.258Z,22.13
2023-05-24T12:17:30.623Z,25.13
2023-05-24T12:19:59.050Z,18.90
2023-05-24T12:22:30.868Z,15.33
2023-05-24T12:24:59.619Z,14.20
2023-05-24T12:27:33.983Z,16.97
2023-05-24T12:30:10.051Z,15.53
2023-05-24T12:32:38.468Z,15.23
2023-05-24T12:35:07.635Z,14.53
2023-05-24T12:37:35.925Z,11.67
2023-05-24T12:40:05.355Z,15.90
2023-05-24T12:42:36.587Z,17.10
2023-05-24T12:45:05.012Z,17.97
2023-05-24T12:47:33.282Z,23.90
2023-05-24T12:50:02.233Z,12.93
2023-05-24T12:52:33.077Z,13.70
2023-05-24T12:55:02.260Z,16.17
2023-05-24T12:57:31.129Z,12.43
2023-05-24T13:00:01.217Z,18.90
2023-05-24T13:02:29.536Z,12.90
2023-05-24T13:04:57.787Z,14.73
2023-05-24T13:07:26.167Z,19.60
2023-05-24T13:09:54.380Z,14.13
2023-05-24T13:12:25.713Z,16.30
2023-05-24T13:14:53.951Z,14.20
2023-05-24T13:17:23.991Z,15.50
2023-05-24T13:19:52.427Z,16.63
2023-05-24T13:22:21.474Z,18.43
2023-05-24T13:24:49.914Z,18.30
2023-05-24T13:27:18.196Z,12.73
2023-05-24T13:29:59.860Z,17.77
2023-05-24T13:32:31.889Z,10.93
2023-05-24T13:35:04.062Z,19.17
2023-05-24T13:37:39.662Z,11.33
2023-05-24T13:40:12.001Z,21.87
2023-05-24T13:42:43.427Z,12.93
2023-05-24T13:45:12.821Z,15.67
2023-05-24T13:47:42.972Z,14.43
2023-05-24T13:50:12.303Z,15.10
2023-05-24T13:52:40.681Z,15.03
2023-05-24T13:55:09.596Z,19.63
2023-05-24T13:57:49.827Z,13.97
2023-05-24T14:00:23.357Z,13.90
2023-05-24T14:02:53.554Z,21.17
2023-05-24T14:05:27.425Z,11.57
2023-05-24T14:07:57.535Z,17.73
2023-05-24T14:10:26.082Z,14.37
2023-05-24T14:13:12.731Z,24.87
2023-05-24T14:15:42.877Z,15.70
2023-05-24T14:18:15.608Z,12.90
2023-05-24T14:20:44.742Z,13.80
2023-05-24T14:23:13.069Z,17.73
2023-05-24T14:25:42.354Z,16.80
2023-05-24T14:28:11.306Z,18.87
2023-05-24T14:30:40.048Z,19.50
2023-05-24T14:33:08.724Z,15.00
2023-05-24T14:35:40.122Z,21.30
2023-05-24T14:38:09.855Z,15.77
2023-05-24T14:40:40.070Z,17.60
2023-05-24T14:43:10.301Z,14.07
2023-05-24T14:45:41.514Z,18.57
2023-05-24T14:48:11.669Z,26.30
2023-05-24T14:50:43.372Z,21.90
2023-05-24T14:53:13.070Z,19.00
2023-05-24T14:55:43.375Z,19.33
2023-05-24T14:58:13.095Z,17.55
2023-05-24T15:00:43.196Z,15.75
2023-05-24T15:03:15.188Z,13.00
2023-05-24T15:05:45.608Z,12.67
2023-05-24T15:08:14.072Z,19.38
2023-05-24T15:10:44.455Z,13.90
2023-05-24T15:13:14.033Z,24.90
2023-05-24T15:15:43.489Z,21.67
2023-05-24T15:18:11.850Z,19.80
2023-05-24T15:20:40.291Z,26.35
2023-05-24T15:23:10.892Z,15.47
2023-05-24T15:25:39.393Z,15.30
2023-05-24T15:28:07.993Z,16.00
2023-05-24T15:30:36.220Z,23.57
2023-05-24T15:33:04.735Z,19.47
2023-05-24T15:35:33.080Z,18.33
2023-05-24T15:38:01.454Z,24.27
2023-05-24T15:40:31.108Z,25.73
2023-05-24T15:42:59.481Z,19.90
2023-05-24T15:45:27.736Z,25.03
2023-05-24T15:47:56.094Z,14.43
2023-05-24T15:50:43.296Z,16.77
2023-05-24T15:53:12.603Z,17.43
2023-05-24T15:55:42.489Z,18.40
2023-05-24T15:58:16.372Z,13.63
2023-05-24T16:00:44.948Z,26.03
2023-05-24T16:03:15.676Z,15.67
2023-05-24T16:05:44.749Z,15.90
2023-05-24T16:08:14.042Z,31.10
2023-05-24T16:10:44.433Z,34.23
2023-05-24T16:13:13.372Z,27.83
2023-05-24T16:15:42.516Z,48.93
2023-05-24T16:18:11.150Z,19.50
2023-05-24T16:20:39.602Z,34.27
2023-05-24T16:23:07.919Z,45.37
2023-05-24T16:25:37.058Z,21.23
2023-05-24T16:28:09.684Z,24.40
2023-05-24T16:30:38.006Z,29.27
2023-05-24T16:33:06.426Z,16.60
2023-05-24T16:35:34.901Z,30.23
2023-05-24T16:38:03.135Z,13.40
2023-05-24T16:40:31.482Z,27.80
2023-05-24T16:42:59.766Z,27.42
2023-05-24T16:45:29.459Z,20.27
2023-05-24T16:47:57.746Z,27.55
2023-05-24T16:50:26.241Z,14.90
2023-05-24T16:52:54.477Z,37.07
2023-05-24T16:55:25.904Z,45.25
2023-05-24T16:57:54.156Z,23.65
2023-05-24T17:00:23.117Z,47.08
2023-05-24T17:02:52.837Z,23.30
2023-05-24T17:05:21.280Z,27.38
2023-05-24T17:07:49.516Z,24.98
2023-05-24T17:10:17.789Z,25.65
2023-05-24T17:12:47.407Z,25.15
2023-05-24T17:15:15.734Z,33.20
2023-05-24T17:17:44.077Z,23.50
2023-05-24T17:20:14.934Z,26.63
2023-05-24T17:22:43.376Z,29.25
2023-05-24T17:25:11.848Z,25.08
2023-05-24T17:27:42.860Z,21.73
2023-05-24T17:30:11.645Z,21.85
2023-05-24T17:32:39.939Z,22.42
2023-05-24T17:35:11.299Z,21.15
2023-05-24T17:37:40.914Z,20.98
2023-05-24T17:40:15.357Z,17.35
2023-05-24T17:42:43.592Z,19.00
2023-05-24T17:45:18.189Z,21.25
2023-05-24T17:47:46.576Z,17.95
2023-05-24T17:50:15.102Z,23.25
2023-05-24T17:52:47.608Z,17.92
2023-05-24T17:55:16.120Z,20.48
2023-05-24T17:57:44.732Z,21.10
2023-05-24T18:00:14.213Z,20.83
2023-05-24T18:02:45.524Z,20.40
2023-05-24T18:05:14.410Z,19.20
2023-05-24T18:07:44.463Z,20.20
2023-05-24T18:10:13.436Z,15.77
2023-05-24T18:12:41.942Z,15.05
2023-05-24T18:15:10.790Z,21.92
2023-05-24T18:17:41.856Z,19.00
2023-05-24T18:20:12.370Z,24.52
2023-05-24T18:22:44.877Z,20.25
2023-05-24T18:25:13.143Z,25.40
2023-05-24T18:27:41.418Z,24.13
2023-05-24T18:30:10.567Z,23.27
2023-05-24T18:32:43.841Z,23.30
2023-05-24T18:35:30.475Z,19.40
2023-05-24T18:38:03.428Z,23.08
2023-05-24T18:40:31.761Z,33.00
2023-05-24T18:43:00.005Z,29.65
2023-05-24T18:45:28.498Z,22.88
2023-05-24T18:47:56.787Z,31.23
2023-05-24T18:50:25.212Z,36.67
2023-05-24T18:52:53.469Z,31.00
2023-05-24T18:55:23.157Z,56.53
2023-05-24T18:57:51.384Z,168.07
2023-05-24T19:00:22.833Z,86.65
2023-05-24T19:02:51.398Z,61.35
2023-05-24T19:05:21.058Z,54.00
2023-05-24T19:07:49.288Z,45.50
2023-05-24T19:10:17.695Z,34.20
2023-05-24T19:12:47.345Z,39.53
2023-05-24T19:15:15.688Z,54.78
2023-05-24T19:17:44.065Z,37.30
2023-05-24T19:20:15.363Z,60.00
2023-05-24T19:22:46.705Z,79.13
2023-05-24T19:25:15.056Z,48.17
2023-05-24T19:27:59.472Z,46.67
2023-05-24T19:30:28.936Z,61.28
2023-05-24T19:33:03.548Z,62.15
2023-05-24T19:35:31.816Z,29.65
2023-05-24T19:38:02.238Z,24.75
2023-05-24T19:40:30.637Z,107.68
2023-05-24T19:43:00.278Z,111.47
2023-05-24T19:45:28.527Z,119.18
2023-05-24T19:48:11.792Z,66.97
2023-05-24T19:50:40.678Z,57.20
2023-05-24T19:53:09.033Z,78.35
2023-05-24T19:55:40.077Z,101.45
2023-05-24T19:58:09.684Z,49.10
2023-05-24T20:00:43.971Z,41.67
2023-05-24T20:03:12.671Z,65.95
2023-05-24T20:05:41.131Z,111.70
2023-05-24T20:08:09.510Z,53.30
2023-05-24T20:10:41.074Z,51.33
2023-05-24T20:13:10.853Z,57.63
2023-05-24T20:15:42.163Z,42.67
2023-05-24T20:18:10.769Z,33.22
2023-05-24T20:20:42.085Z,57.78
2023-05-24T20:23:10.471Z,60.42
2023-05-24T20:25:38.678Z,85.22
2023-05-24T20:28:21.755Z,58.30
2023-05-24T20:30:58.968Z,55.10
2023-05-24T20:33:27.427Z,42.33
2023-05-24T20:35:55.880Z,35.65
2023-05-24T20:38:24.415Z,36.22
2023-05-24T20:40:52.750Z,59.20
2023-05-24T20:43:20.955Z,71.30
2023-05-24T20:45:49.453Z,95.63
2023-05-24T20:48:19.232Z,44.58
2023-05-24T20:50:53.531Z,31.95
2023-05-24T20:53:21.820Z,29.10
2023-05-24T20:55:50.108Z,33.00
2023-05-24T20:58:18.757Z,28.73
2023-05-24T21:00:47.350Z,27.63
2023-05-24T21:03:16.038Z,31.85
2023-05-24T21:05:45.918Z,39.63
2023-05-24T21:08:18.084Z,23.55
2023-05-24T21:10:46.397Z,36.88
2023-05-24T21:13:14.700Z,40.50
2023-05-24T21:15:44.707Z,34.60
2023-05-24T21:18:14.017Z,36.42
2023-05-24T21:20:42.329Z,42.08
2023-05-24T21:23:12.377Z,38.35
2023-05-24T21:25:40.681Z,29.50
2023-05-24T21:28:10.299Z,87.88
2023-05-24T21:30:41.371Z,35.95
2023-05-24T21:33:09.826Z,63.08
2023-05-24T21:35:38.636Z,82.47
2023-05-24T21:38:06.882Z,73.88
2023-05-24T21:40:36.513Z,39.28
2023-05-24T21:43:05.252Z,53.65
2023-05-24T21:45:33.580Z,35.70
2023-05-24T21:48:02.324Z,57.80
2023-05-24T21:50:30.607Z,30.27
2023-05-24T21:52:59.378Z,30.70
2023-05-24T21:55:27.839Z,30.73
2023-05-24T21:57:57.521Z,25.30
2023-05-24T22:00:27.165Z,35.58
2023-05-24T22:02:55.788Z,63.47
2023-05-24T22:05:25.525Z,23.05
2023-05-24T22:07:55.124Z,32.50
2023-05-24T22:10:23.400Z,41.38
2023-05-24T22:12:51.631Z,39.58
2023-05-24T22:15:21.505Z,40.97
2023-05-24T22:17:50.406Z,32.88
2023-05-24T22:20:19.353Z,58.00
2023-05-24T22:22:53.349Z,33.78
2023-05-24T22:25:21.819Z,19.38
2023-05-24T22:27:50.948Z,20.60
2023-05-24T22:30:20.668Z,22.67
2023-05-24T22:32:48.980Z,36.60
2023-05-24T22:35:17.539Z,31.02
2023-05-24T22:37:45.952Z,29.50
2023-05-24T22:40:14.899Z,47.05
2023-05-24T22:42:43.216Z,28.33
2023-05-24T22:45:13.956Z,37.13
2023-05-24T22:47:43.740Z,33.38
2023-05-24T22:50:12.214Z,27.85
2023-05-24T22:52:42.716Z,55.40
2023-05-24T22:55:11.971Z,37.08
2023-05-24T22:57:40.279Z,32.92
2023-05-24T23:00:09.903Z,25.00
2023-05-24T23:02:38.259Z,36.92
2023-05-24T23:05:09.652Z,29.30
2023-05-24T23:07:39.981Z,45.10
2023-05-24T23:10:09.370Z,33.90
2023-05-24T23:12:37.674Z,26.90
2023-05-24T23:15:06.582Z,39.10
2023-05-24T23:17:34.888Z,31.60
2023-05-24T23:20:05.505Z,21.75
2023-05-24T23:22:37.603Z,30.88
2023-05-24T23:25:06.708Z,27.58
2023-05-24T23:27:35.149Z,31.02
2023-05-24T23:30:03.402Z,25.58
2023-05-24T23:32:31.690Z,22.33
2023-05-24T23:35:00.029Z,30.20
2023-05-24T23:37:28.398Z,43.25
2023-05-24T23:40:02.306Z,28.08
2023-05-24T23:42:30.613Z,20.23
2023-05-24T23:44:58.877Z,32.25
2023-05-24T23:47:27.392Z,25.17
2023-05-24T23:49:55.796Z,18.40
2023-05-24T23:52:25.103Z,24.33
2023-05-24T23:54:53.852Z,22.60
2023-05-24T23:57:24.983Z,48.17
2023-05-24T23:59:53.277Z,23.58
